Time;durP1;ratioP1;P1;durP2;ratioP2;P2;SDS_P1;SDS_P2;PMS_P1;PMS_P2;Temp;Humidity;BMP_temperature;BMP_pressure;BME280_temperature;BME280_humidity;BME280_pressure;Samples;Min_cycle;Max_cycle;Signal;HPM_P1;HPM_P2
2020/12/20 00:00:28;;;;;;;7.93;4.97;;;10.30;85.30;;;;;;5054961;28;20021;-82
2020/12/20 00:02:56;;;;;;;6.20;4.30;;;10.30;85.40;;;;;;5054013;28;20509;-83
2020/12/20 00:05:23;;;;;;;8.40;4.80;;;10.30;86.10;;;;;;5054881;28;20025;-83
2020/12/20 00:07:50;;;;;;;7.57;5.03;;;10.30;85.50;;;;;;5055159;28;20466;-82
2020/12/20 00:10:18;;;;;;;8.07;5.10;;;10.30;85.40;;;;;;5052956;28;20021;-82
2020/12/20 00:12:44;;;;;;;8.57;5.55;;;10.20;85.50;;;;;;5055173;28;20431;-82
2020/12/20 00:15:11;;;;;;;7.73;5.10;;;10.30;85.70;;;;;;5055110;28;20413;-83
2020/12/20 00:17:37;;;;;;;7.50;4.50;;;10.20;85.80;;;;;;5055668;28;20017;-82
2020/12/20 00:20:07;;;;;;;6.77;4.93;;;10.20;85.90;;;;;;5054900;28;20028;-83
2020/12/20 00:22:33;;;;;;;7.93;4.90;;;10.30;86.00;;;;;;5057473;28;20367;-83
2020/12/20 00:24:59;;;;;;;7.13;4.73;;;10.20;86.00;;;;;;5057366;28;20059;-83
2020/12/20 00:27:25;;;;;;;9.83;4.70;;;10.20;86.00;;;;;;5056621;28;20017;-84
2020/12/20 00:29:51;;;;;;;11.43;4.93;;;10.20;86.00;;;;;;5056550;28;20398;-83
2020/12/20 00:32:17;;;;;;;9.27;4.40;;;10.30;86.10;;;;;;5057903;28;20036;-84
2020/12/20 00:34:43;;;;;;;7.43;4.60;;;10.20;86.00;;;;;;5058863;28;20021;-83
2020/12/20 00:37:09;;;;;;;7.87;4.60;;;10.20;86.30;;;;;;5058288;28;20104;-84
2020/12/20 00:39:35;;;;;;;9.30;4.93;;;10.20;86.40;;;;;;5058119;28;20029;-83
2020/12/20 00:42:04;;;;;;;8.93;4.93;;;10.20;86.50;;;;;;5058034;28;20112;-84
2020/12/20 00:44:30;;;;;;;8.55;4.93;;;10.20;86.60;;;;;;5058445;28;20021;-83
2020/12/20 00:46:57;;;;;;;7.53;4.23;;;10.20;86.80;;;;;;5060054;28;20021;-83
2020/12/20 00:49:24;;;;;;;8.00;4.67;;;10.20;86.80;;;;;;5059862;28;20258;-83
2020/12/20 00:51:52;;;;;;;5.90;3.83;;;10.20;86.70;;;;;;5060098;28;20083;-83
2020/12/20 00:54:18;;;;;;;9.43;5.43;;;10.20;86.80;;;;;;5062187;28;20048;-83
2020/12/20 00:56:43;;;;;;;9.63;4.80;;;10.20;86.70;;;;;;5070142;28;20390;-83
2020/12/20 00:59:09;;;;;;;7.03;4.50;;;10.20;86.70;;;;;;5069108;28;20075;-82
2020/12/20 01:01:35;;;;;;;8.37;4.63;;;10.20;86.70;;;;;;5061263;28;20033;-83
2020/12/20 01:04:00;;;;;;;8.47;4.50;;;10.20;86.80;;;;;;5053751;28;20033;-83
2020/12/20 01:06:26;;;;;;;6.70;4.40;;;10.20;86.70;;;;;;5058701;28;20086;-83
2020/12/20 01:08:52;;;;;;;7.77;4.33;;;10.20;86.70;;;;;;5054596;28;20033;-84
2020/12/20 01:11:19;;;;;;;7.23;4.47;;;10.30;86.80;;;;;;5059788;28;20041;-84
2020/12/20 01:13:46;;;;;;;7.60;3.97;;;10.20;86.70;;;;;;5064479;28;20033;-83
2020/12/20 01:16:19;;;;;;;6.60;4.30;;;10.20;86.70;;;;;;5062512;28;20055;-84
2020/12/20 01:18:45;;;;;;;5.83;3.87;;;10.30;86.80;;;;;;5057194;28;20029;-84
2020/12/20 01:21:11;;;;;;;7.83;4.87;;;10.30;86.80;;;;;;5059830;28;20029;-84
2020/12/20 01:23:37;;;;;;;6.87;4.60;;;10.20;86.80;;;;;;5057535;28;20100;-84
2020/12/20 01:26:04;;;;;;;7.63;4.50;;;10.20;86.80;;;;;;5058775;28;20569;-84
2020/12/20 01:28:30;;;;;;;8.50;4.50;;;10.20;86.90;;;;;;5056494;28;20040;-83
2020/12/20 01:30:56;;;;;;;6.93;4.17;;;10.30;86.90;;;;;;5054122;28;20063;-84
2020/12/20 01:33:22;;;;;;;7.47;3.70;;;10.30;86.90;;;;;;5053969;28;20033;-83
2020/12/20 01:35:48;;;;;;;8.20;3.83;;;10.20;87.00;;;;;;5055599;28;20101;-83
2020/12/20 01:38:13;;;;;;;6.80;4.17;;;10.20;87.00;;;;;;5054103;28;20029;-83
2020/12/20 01:40:40;;;;;;;7.30;4.37;;;10.20;87.00;;;;;;5055117;28;20033;-83
2020/12/20 01:43:05;;;;;;;6.90;4.20;;;10.30;87.00;;;;;;5056272;28;20052;-83
2020/12/20 01:45:31;;;;;;;7.03;3.80;;;10.30;87.10;;;;;;5055788;28;20498;-83
2020/12/20 01:47:56;;;;;;;8.33;3.90;;;10.30;87.10;;;;;;5056021;28;20021;-83
2020/12/20 01:50:23;;;;;;;5.80;3.77;;;10.30;86.90;;;;;;5055620;28;20036;-83
2020/12/20 01:52:49;;;;;;;7.33;3.90;;;10.30;86.90;;;;;;5055768;28;20032;-83
2020/12/20 01:55:19;;;;;;;7.17;4.43;;;10.30;86.90;;;;;;5054196;28;20029;-83
2020/12/20 01:57:45;;;;;;;6.63;3.47;;;10.30;86.90;;;;;;5056279;28;20029;-83
2020/12/20 02:00:10;;;;;;;5.87;3.20;;;10.40;86.90;;;;;;5055557;28;20025;-83
2020/12/20 02:02:36;;;;;;;5.90;3.57;;;10.30;86.80;;;;;;5056164;28;20111;-83
2020/12/20 02:05:02;;;;;;;8.57;3.80;;;10.30;86.80;;;;;;5055692;28;20108;-83
2020/12/20 02:07:27;;;;;;;5.83;3.30;;;10.30;86.70;;;;;;5055962;28;20078;-83
2020/12/20 02:09:53;;;;;;;7.10;3.70;;;10.30;86.50;;;;;;5053978;28;20128;-83
2020/12/20 02:12:19;;;;;;;8.03;4.20;;;10.40;86.80;;;;;;5056516;28;20378;-84
2020/12/20 02:14:44;;;;;;;7.13;3.70;;;10.40;86.60;;;;;;5056006;28;20052;-83
2020/12/20 02:17:10;;;;;;;5.17;3.33;;;10.40;86.50;;;;;;5055842;28;20045;-83
2020/12/20 02:19:35;;;;;;;5.20;3.33;;;10.40;86.70;;;;;;5054955;28;20108;-83
2020/12/20 02:22:01;;;;;;;5.93;3.43;;;10.40;86.70;;;;;;5055697;28;20025;-84
2020/12/20 02:24:28;;;;;;;5.53;3.47;;;10.40;86.70;;;;;;5054322;28;20029;-84
2020/12/20 02:26:53;;;;;;;6.60;3.03;;;10.40;86.70;;;;;;5055143;28;20033;-84
2020/12/20 02:29:19;;;;;;;6.10;3.40;;;10.40;86.70;;;;;;5054562;28;20036;-84
2020/12/20 02:31:45;;;;;;;4.97;3.00;;;10.40;86.70;;;;;;5055183;28;20029;-83
2020/12/20 02:34:10;;;;;;;6.27;3.37;;;10.40;86.60;;;;;;5055321;28;20025;-83
2020/12/20 02:36:37;;;;;;;7.60;3.57;;;10.30;86.70;;;;;;5055192;28;20060;-83
2020/12/20 02:39:07;;;;;;;6.13;3.47;;;10.40;86.70;;;;;;5054739;28;20074;-83
2020/12/20 02:41:34;;;;;;;5.93;3.37;;;10.40;86.80;;;;;;5054811;28;20540;-84
2020/12/20 02:44:00;;;;;;;5.17;3.00;;;10.40;86.70;;;;;;5055040;28;20028;-84
2020/12/20 02:46:26;;;;;;;5.20;3.20;;;10.30;87.40;;;;;;5053103;28;20517;-83
2020/12/20 02:48:52;;;;;;;6.23;3.33;;;10.30;86.80;;;;;;5052971;28;20028;-84
2020/12/20 02:51:18;;;;;;;5.53;3.13;;;10.30;86.80;;;;;;5054942;28;20029;-84
2020/12/20 02:53:45;;;;;;;5.10;3.27;;;10.40;86.90;;;;;;5054388;28;20052;-84
2020/12/20 02:56:13;;;;;;;5.57;2.87;;;10.30;86.80;;;;;;5054627;28;20107;-84
2020/12/20 02:58:40;;;;;;;5.40;3.28;;;10.30;86.90;;;;;;5055166;28;20040;-83
2020/12/20 03:01:06;;;;;;;6.20;3.30;;;10.30;86.90;;;;;;5054150;28;20440;-85
2020/12/20 03:03:31;;;;;;;6.27;3.33;;;10.40;87.00;;;;;;5054635;28;20021;-83
2020/12/20 03:06:00;;;;;;;6.23;3.20;;;10.30;87.00;;;;;;5054660;28;20029;-84
2020/12/20 03:08:26;;;;;;;4.93;2.93;;;10.30;87.00;;;;;;5054367;28;20029;-84
2020/12/20 03:10:51;;;;;;;6.50;3.47;;;10.30;87.10;;;;;;5054041;28;20256;-84
2020/12/20 03:13:17;;;;;;;9.13;3.47;;;10.30;87.00;;;;;;5054203;28;20029;-84
2020/12/20 03:15:43;;;;;;;4.77;2.90;;;10.30;87.10;;;;;;5054198;28;20098;-84
2020/12/20 03:18:09;;;;;;;6.93;3.40;;;10.30;87.10;;;;;;5052748;28;20542;-84
2020/12/20 03:20:35;;;;;;;4.73;2.73;;;10.30;87.00;;;;;;5053818;28;20031;-84
2020/12/20 03:23:01;;;;;;;6.13;3.20;;;10.30;87.60;;;;;;5054337;28;20103;-82
2020/12/20 03:25:27;;;;;;;11.53;3.47;;;10.30;87.00;;;;;;5055069;28;20075;-82
2020/12/20 03:27:53;;;;;;;5.40;3.40;;;10.40;87.10;;;;;;5054888;28;20029;-83
2020/12/20 03:30:19;;;;;;;5.90;3.43;;;10.40;87.00;;;;;;5054302;28;20017;-83
2020/12/20 03:32:44;;;;;;;8.43;3.63;;;10.30;87.00;;;;;;5054622;28;20017;-83
2020/12/20 03:35:11;;;;;;;7.63;3.50;;;10.30;87.70;;;;;;5053272;28;20417;-83
2020/12/20 03:37:37;;;;;;;5.30;3.60;;;10.30;87.20;;;;;;5055394;28;20087;-83
2020/12/20 03:40:04;;;;;;;7.77;3.40;;;10.30;87.20;;;;;;5054116;28;20029;-83
2020/12/20 03:42:29;;;;;;;5.13;3.57;;;10.20;87.20;;;;;;5053207;28;20089;-82
2020/12/20 03:44:55;;;;;;;6.63;3.17;;;10.20;87.30;;;;;;5054697;28;20111;-83
2020/12/20 03:47:21;;;;;;;6.87;3.83;;;10.30;87.40;;;;;;5055139;28;20017;-83
2020/12/20 03:49:46;;;;;;;6.23;3.67;;;10.20;87.30;;;;;;5054401;28;20083;-83
2020/12/20 03:52:12;;;;;;;4.90;3.60;;;10.20;87.30;;;;;;5055049;28;20032;-83
2020/12/20 03:54:37;;;;;;;6.37;3.53;;;10.20;87.40;;;;;;5054917;28;20485;-83
2020/12/20 03:57:03;;;;;;;5.73;3.70;;;10.20;87.40;;;;;;5052893;28;20037;-83
2020/12/20 03:59:29;;;;;;;6.63;3.30;;;10.20;87.40;;;;;;5053391;28;20035;-83
2020/12/20 04:01:54;;;;;;;5.23;3.33;;;10.20;87.30;;;;;;5055088;28;20428;-83
2020/12/20 04:04:20;;;;;;;7.00;3.43;;;10.20;87.40;;;;;;5055223;28;20021;-82
2020/12/20 04:06:45;;;;;;;5.60;3.77;;;10.20;87.50;;;;;;5054555;28;20083;-83
2020/12/20 04:09:11;;;;;;;7.50;3.77;;;10.20;87.60;;;;;;5054775;28;20033;-83
2020/12/20 04:11:37;;;;;;;6.20;3.23;;;10.20;87.60;;;;;;5055494;28;20033;-83
2020/12/20 04:14:03;;;;;;;5.67;3.90;;;10.20;87.60;;;;;;5055757;28;20385;-83
2020/12/20 04:16:28;;;;;;;5.73;3.60;;;10.20;87.80;;;;;;5055968;28;20033;-82
2020/12/20 04:18:54;;;;;;;7.50;3.60;;;10.10;87.70;;;;;;5054920;28;20037;-83
2020/12/20 04:21:19;;;;;;;7.60;3.87;;;10.10;87.70;;;;;;5054075;28;20104;-83
2020/12/20 04:23:45;;;;;;;5.33;3.80;;;10.10;87.70;;;;;;5056549;28;20025;-84
2020/12/20 04:26:12;;;;;;;6.73;3.77;;;10.20;87.80;;;;;;5056376;28;20044;-83
2020/12/20 04:28:37;;;;;;;6.67;3.97;;;10.10;87.80;;;;;;5056311;28;20032;-84
2020/12/20 04:31:03;;;;;;;7.73;4.37;;;10.10;87.80;;;;;;5055795;28;20036;-83
2020/12/20 04:33:28;;;;;;;6.63;4.07;;;10.20;87.90;;;;;;5056177;28;20029;-83
2020/12/20 04:35:54;;;;;;;6.23;3.80;;;10.10;87.80;;;;;;5057625;28;20029;-83
2020/12/20 04:38:19;;;;;;;6.53;4.13;;;10.20;87.90;;;;;;5065034;28;20091;-82
2020/12/20 04:40:56;;;;;;;6.67;4.07;;;10.10;87.90;;;;;;5066180;28;20021;-83
2020/12/20 04:43:22;;;;;;;8.77;4.60;;;10.10;88.00;;;;;;5060863;28;20028;-83
2020/12/20 04:45:52;;;;;;;6.97;4.60;;;10.10;88.10;;;;;;5052950;28;20024;-84
2020/12/20 04:48:18;;;;;;;6.57;4.20;;;10.00;88.00;;;;;;5056266;28;20032;-84
2020/12/20 04:50:44;;;;;;;7.13;4.33;;;10.10;88.30;;;;;;5055816;28;20033;-84
2020/12/20 04:53:12;;;;;;;7.97;4.40;;;10.10;88.20;;;;;;5056519;28;20123;-84
2020/12/20 04:55:38;;;;;;;8.17;4.43;;;10.10;88.20;;;;;;5056481;28;20033;-84
2020/12/20 04:58:05;;;;;;;8.13;4.90;;;10.10;88.20;;;;;;5056215;28;20032;-84
2020/12/20 05:00:30;;;;;;;6.90;4.50;;;10.10;88.10;;;;;;5055883;28;20033;-84
2020/12/20 05:02:56;;;;;;;7.47;4.63;;;10.10;88.30;;;;;;5056441;28;20032;-84
2020/12/20 05:05:22;;;;;;;9.53;4.40;;;10.00;88.20;;;;;;5056319;28;20021;-84
2020/12/20 05:07:48;;;;;;;7.37;4.50;;;10.00;88.30;;;;;;5054747;28;20363;-84
2020/12/20 05:10:14;;;;;;;7.43;4.73;;;10.10;88.50;;;;;;5054165;28;20025;-83
2020/12/20 05:12:39;;;;;;;7.33;4.43;;;10.10;88.40;;;;;;5056257;28;20500;-83
2020/12/20 05:15:25;;;;;;;8.73;4.50;;;10.10;88.50;;;;;;5054252;28;20029;-83
2020/12/20 05:18:23;;;;;;;7.77;3.93;;;10.10;88.40;;;;;;5055684;28;20029;-83
2020/12/20 05:20:49;;;;;;;6.47;3.97;;;10.10;88.50;;;;;;5032089;28;20513;-84
2020/12/20 05:23:16;;;;;;;8.33;4.63;;;10.10;88.30;;;;;;5055678;28;20029;-84
2020/12/20 05:25:43;;;;;;;8.53;4.40;;;10.10;88.40;;;;;;5055587;28;20548;-84
2020/12/20 05:28:10;;;;;;;8.30;4.40;;;10.10;88.50;;;;;;5055428;28;20478;-84
2020/12/20 05:30:37;;;;;;;10.37;4.57;;;10.00;88.40;;;;;;5055175;28;20529;-83
2020/12/20 05:33:03;;;;;;;9.30;5.37;;;10.00;88.50;;;;;;5056107;28;20087;-84
2020/12/20 05:35:29;;;;;;;7.80;4.07;;;10.00;88.50;;;;;;5055830;28;20021;-83
2020/12/20 05:37:55;;;;;;;7.43;4.47;;;10.10;88.50;;;;;;5055889;28;20500;-83
2020/12/20 05:40:31;;;;;;;9.10;4.40;;;10.10;88.50;;;;;;5054035;28;20021;-84
2020/12/20 05:43:03;;;;;;;9.50;5.10;;;10.10;88.40;;;;;;5056041;28;20109;-84
2020/12/20 05:45:34;;;;;;;7.63;4.60;;;10.10;88.40;;;;;;5055884;28;20028;-83
2020/12/20 05:48:17;;;;;;;8.83;5.27;;;10.00;88.70;;;;;;5054974;28;20028;-83
2020/12/20 05:50:54;;;;;;;8.53;4.70;;;10.00;88.40;;;;;;5054926;28;20029;-83
2020/12/20 05:53:24;;;;;;;8.03;4.60;;;10.00;88.40;;;;;;5055535;28;20410;-83
2020/12/20 05:55:50;;;;;;;8.10;4.47;;;10.10;88.40;;;;;;5055406;28;20017;-83
2020/12/20 05:58:17;;;;;;;10.13;5.33;;;10.10;88.40;;;;;;5054569;28;20228;-84
2020/12/20 06:00:44;;;;;;;6.20;4.43;;;10.10;88.30;;;;;;5055404;28;20411;-84
2020/12/20 06:03:10;;;;;;;7.47;4.60;;;10.10;88.30;;;;;;5056012;28;20021;-83
2020/12/20 06:05:41;;;;;;;9.43;4.53;;;10.10;88.30;;;;;;5055346;28;20393;-83
2020/12/20 06:08:10;;;;;;;6.47;4.23;;;10.10;88.20;;;;;;5055936;28;20029;-83
2020/12/20 06:10:39;;;;;;;7.38;4.72;;;10.10;88.30;;;;;;5055053;28;20108;-83
2020/12/20 06:13:07;;;;;;;8.35;5.45;;;10.10;88.20;;;;;;5055407;28;20387;-84
2020/12/20 06:15:35;;;;;;;10.47;5.63;;;10.10;88.10;;;;;;5078913;23;20040;-87
2020/12/20 06:18:07;;;;;;;8.80;5.00;;;10.00;88.20;;;;;;5015504;28;20120;-86
2020/12/20 06:20:38;;;;;;;9.77;5.13;;;10.10;88.20;;;;;;5015853;28;20386;-86
2020/12/20 06:23:03;;;;;;;10.73;5.47;;;10.10;88.30;;;;;;5016514;28;20022;-87
2020/12/20 06:25:29;;;;;;;6.90;4.80;;;10.00;88.30;;;;;;5033942;28;20104;-86
2020/12/20 06:28:08;;;;;;;9.57;4.77;;;10.00;88.20;;;;;;5016302;28;20036;-87
2020/12/20 06:30:33;;;;;;;8.40;4.95;;;10.00;88.20;;;;;;5015425;28;20496;-87
2020/12/20 06:33:04;;;;;;;9.13;5.17;;;10.10;88.20;;;;;;5015962;28;20034;-85
2020/12/20 06:35:31;;;;;;;8.37;5.17;;;10.00;88.30;;;;;;5033882;28;20041;-86
2020/12/20 06:37:57;;;;;;;7.73;5.10;;;10.00;88.40;;;;;;5015886;28;20030;-87
2020/12/20 06:40:29;;;;;;;7.57;5.13;;;10.00;88.30;;;;;;5016324;28;20053;-87
2020/12/20 06:42:55;;;;;;;7.17;5.00;;;10.00;88.30;;;;;;5019773;28;20091;-86
2020/12/20 06:45:21;;;;;;;9.10;4.97;;;10.00;88.40;;;;;;5016117;28;20059;-87
2020/12/20 06:47:52;;;;;;;11.40;4.83;;;10.00;88.50;;;;;;5018987;28;20057;-87
2020/12/20 06:50:42;;;;;;;8.70;4.90;;;10.00;88.50;;;;;;5037538;28;20083;-87
2020/12/20 06:53:09;;;;;;;10.47;5.10;;;10.00;88.50;;;;;;5020918;28;20120;-86
2020/12/20 06:55:36;;;;;;;9.87;5.03;;;10.00;88.50;;;;;;5019053;28;20387;-86
2020/12/20 06:58:04;;;;;;;9.13;5.13;;;10.00;88.50;;;;;;5021918;28;20059;-87
2020/12/20 07:00:39;;;;;;;7.35;4.72;;;10.00;88.50;;;;;;5021794;28;20121;-86
2020/12/20 07:03:05;;;;;;;7.83;4.90;;;10.00;88.60;;;;;;5022112;28;20048;-87
2020/12/20 07:05:38;;;;;;;8.87;5.00;;;10.00;88.60;;;;;;5021980;28;20490;-87
2020/12/20 07:08:11;;;;;;;9.13;5.13;;;10.00;88.60;;;;;;5022584;28;20025;-86
2020/12/20 07:10:45;;;;;;;8.57;5.40;;;10.00;88.70;;;;;;5021157;28;20044;-88
2020/12/20 07:13:12;;;;;;;9.67;5.47;;;10.00;88.70;;;;;;5022237;28;20116;-87
2020/12/20 07:15:47;;;;;;;7.50;4.87;;;9.90;88.80;;;;;;5017311;28;20031;-87
2020/12/20 07:18:38;;;;;;;7.93;5.07;;;9.90;88.70;;;;;;5015052;28;20106;-87
2020/12/20 07:21:04;;;;;;;8.67;5.03;;;9.90;88.80;;;;;;5014469;28;20026;-87
2020/12/20 07:23:30;;;;;;;10.87;6.83;;;9.90;88.80;;;;;;5014987;28;20072;-87
2020/12/20 07:25:57;;;;;;;13.50;8.13;;;10.00;88.90;;;;;;5015042;28;20261;-87
2020/12/20 07:28:22;;;;;;;12.23;7.63;;;9.90;88.90;;;;;;5015091;28;20556;-86
2020/12/20 07:30:48;;;;;;;10.50;7.17;;;9.90;88.90;;;;;;5031932;28;20061;-87
2020/12/20 07:33:18;;;;;;;9.17;5.60;;;10.00;88.80;;;;;;5015372;28;20031;-87
2020/12/20 07:35:44;;;;;;;;;;;9.90;88.90;;;;;;5015645;28;20099;-87
2020/12/20 07:38:10;;;;;;;9.70;5.33;;;9.90;88.80;;;;;;5032727;28;20433;-87
2020/12/20 07:40:35;;;;;;;9.00;5.40;;;10.00;88.90;;;;;;5032183;28;20109;-86
2020/12/20 07:43:01;;;;;;;9.17;5.50;;;9.90;88.90;;;;;;5014635;28;20018;-87
2020/12/20 07:45:27;;;;;;;9.53;5.20;;;10.00;89.10;;;;;;5014691;28;20017;-87
2020/12/20 07:47:52;;;;;;;8.17;5.17;;;9.90;89.00;;;;;;5014919;28;20108;-87
2020/12/20 07:50:22;;;;;;;7.87;5.00;;;9.90;88.90;;;;;;5014216;28;20056;-87
2020/12/20 07:52:48;;;;;;;9.07;5.43;;;9.90;89.00;;;;;;5014529;28;20025;-88
2020/12/20 07:55:14;;;;;;;8.07;5.17;;;9.90;89.20;;;;;;5014706;28;20375;-87
2020/12/20 07:57:43;;;;;;;7.40;5.50;;;9.90;89.10;;;;;;5014275;28;20111;-87
2020/12/20 08:00:09;;;;;;;;;;;9.90;89.10;;;;;;5032396;28;20117;-86
2020/12/20 08:02:35;;;;;;;8.80;5.43;;;9.90;89.20;;;;;;5032309;28;20370;-88
2020/12/20 08:05:12;;;;;;;7.17;4.90;;;9.90;89.20;;;;;;5014689;28;20021;-87
2020/12/20 08:07:38;;;;;;;9.30;5.43;;;9.90;89.20;;;;;;5014322;28;20021;-87
2020/12/20 08:10:07;;;;;;;8.43;4.77;;;9.90;89.20;;;;;;5031646;28;20079;-86
2020/12/20 08:12:33;;;;;;;10.13;5.55;;;9.90;89.20;;;;;;5014281;28;20033;-87
2020/12/20 08:15:07;;;;;;;8.80;5.43;;;9.80;89.00;;;;;;5014424;28;20124;-88
2020/12/20 08:17:35;;;;;;;7.73;5.40;;;9.90;89.10;;;;;;5014116;28;20034;-87
2020/12/20 08:20:03;;;;;;;7.53;5.18;;;9.90;89.20;;;;;;5013734;28;20033;-87
2020/12/20 08:22:32;;;;;;;9.07;5.57;;;9.90;89.30;;;;;;5033999;28;20059;-88
2020/12/20 08:24:59;;;;;;;8.87;5.77;;;9.80;89.30;;;;;;5018368;28;20071;-87
2020/12/20 08:27:28;;;;;;;8.87;5.60;;;9.90;89.30;;;;;;5018100;28;20164;-87
2020/12/20 08:29:58;;;;;;;11.07;6.40;;;9.90;90.00;;;;;;5035486;28;20079;-87
2020/12/20 08:32:34;;;;;;;8.60;5.50;;;9.90;89.30;;;;;;5018230;28;20057;-86
2020/12/20 08:35:18;;;;;;;10.37;5.57;;;9.90;89.30;;;;;;5018142;28;20034;-87
2020/12/20 08:37:55;;;;;;;10.47;5.70;;;9.90;89.20;;;;;;5018165;28;20032;-87
2020/12/20 08:40:21;;;;;;;9.07;5.17;;;9.90;89.20;;;;;;5017451;28;20021;-87
2020/12/20 08:42:48;;;;;;;8.43;5.40;;;9.80;89.30;;;;;;5018001;28;20132;-87
2020/12/20 08:45:15;;;;;;;9.67;5.30;;;9.90;89.40;;;;;;5018338;28;20103;-87
2020/12/20 08:47:43;;;;;;;9.40;5.67;;;9.90;89.30;;;;;;5017802;28;20022;-87
2020/12/20 08:50:09;;;;;;;12.53;6.30;;;9.90;89.40;;;;;;5017639;28;20508;-86
2020/12/20 08:52:34;;;;;;;10.53;6.03;;;10.00;89.50;;;;;;5035572;28;20436;-86
2020/12/20 08:55:02;;;;;;;11.77;5.80;;;9.90;89.30;;;;;;5018307;28;20037;-87
2020/12/20 08:57:29;;;;;;;10.40;5.53;;;9.90;89.20;;;;;;5017888;28;20032;-87
2020/12/20 09:00:06;;;;;;;9.93;5.53;;;9.90;89.30;;;;;;5017274;28;20029;-87
2020/12/20 09:02:31;;;;;;;8.63;5.63;;;9.90;89.40;;;;;;5018395;28;20108;-87
2020/12/20 09:05:06;;;;;;;9.27;5.80;;;9.90;89.40;;;;;;5018135;28;20129;-87
2020/12/20 09:07:46;;;;;;;9.53;6.30;;;10.00;89.30;;;;;;5021271;28;20021;-87
2020/12/20 09:10:15;;;;;;;8.10;5.90;;;9.90;89.40;;;;;;5034621;28;20025;-87
2020/12/20 09:13:04;;;;;;;9.23;6.35;;;10.00;90.00;;;;;;5035038;28;20029;-87
2020/12/20 09:15:29;;;;;;;9.90;6.13;;;10.00;89.40;;;;;;5035148;28;20033;-88
2020/12/20 09:17:57;;;;;;;11.43;6.60;;;10.00;89.50;;;;;;5017526;28;20080;-86
2020/12/20 09:20:24;;;;;;;9.87;6.43;;;10.00;89.40;;;;;;5016884;28;20056;-86
2020/12/20 09:22:52;;;;;;;11.80;6.40;;;10.00;89.40;;;;;;5017583;28;20049;-86
2020/12/20 09:25:48;;;;;;;12.75;7.22;;;9.90;89.40;;;;;;5017432;28;20021;-86
2020/12/20 09:28:20;;;;;;;11.20;6.53;;;10.00;89.50;;;;;;5004948;28;20061;-87
2020/12/20 09:30:46;;;;;;;9.47;5.97;;;10.00;89.30;;;;;;5017085;28;20046;-84
2020/12/20 09:33:29;;;;;;;12.97;6.83;;;10.00;89.20;;;;;;5034688;28;20386;-86
2020/12/20 09:35:59;;;;;;;9.20;6.17;;;10.00;89.20;;;;;;5017218;28;20025;-87
2020/12/20 09:38:46;;;;;;;11.13;6.23;;;10.10;89.30;;;;;;5016825;28;20021;-86
2020/12/20 09:41:14;;;;;;;10.43;6.27;;;10.10;89.20;;;;;;5016572;28;20060;-86
2020/12/20 09:43:40;;;;;;;11.40;6.43;;;10.10;89.10;;;;;;5018367;28;20028;-87
2020/12/20 09:46:07;;;;;;;11.33;6.30;;;10.10;89.00;;;;;;5018365;28;20053;-86
2020/12/20 09:48:33;;;;;;;9.77;6.00;;;10.10;88.90;;;;;;5035776;28;20025;-86
2020/12/20 09:50:58;;;;;;;9.77;6.20;;;10.10;88.80;;;;;;5017913;28;20486;-86
2020/12/20 09:53:24;;;;;;;10.87;5.40;;;10.10;88.80;;;;;;5016880;28;20057;-86
2020/12/20 09:55:50;;;;;;;12.23;6.83;;;10.20;88.60;;;;;;5034679;28;20108;-86
2020/12/20 09:58:16;;;;;;;11.93;6.60;;;10.20;88.50;;;;;;5016706;28;20029;-87
2020/12/20 10:00:43;;;;;;;13.00;6.13;;;10.20;88.30;;;;;;5020271;28;20018;-87
2020/12/20 10:03:09;;;;;;;9.70;5.73;;;10.20;88.20;;;;;;5016794;28;20021;-86
2020/12/20 10:05:35;;;;;;;11.50;5.67;;;10.30;88.30;;;;;;5016716;28;20029;-87
2020/12/20 10:08:02;;;;;;;12.40;5.90;;;10.30;88.10;;;;;;5028063;28;20013;-85
2020/12/20 10:10:28;;;;;;;11.73;6.30;;;10.30;88.10;;;;;;5031037;28;20060;-86
2020/12/20 10:12:55;;;;;;;8.77;6.07;;;10.30;87.90;;;;;;5030719;28;20038;-87
2020/12/20 10:15:21;;;;;;;9.63;5.03;;;10.30;87.90;;;;;;5022704;28;20120;-87
2020/12/20 10:17:46;;;;;;;9.03;5.53;;;10.30;87.70;;;;;;5016752;28;20516;-86
2020/12/20 10:20:12;;;;;;;11.30;5.63;;;10.30;87.60;;;;;;5015709;28;20148;-87
2020/12/20 10:22:38;;;;;;;8.90;5.23;;;10.30;87.50;;;;;;5034097;28;20339;-87
2020/12/20 10:25:05;;;;;;;9.40;5.03;;;10.30;87.50;;;;;;5016426;28;20029;-87
2020/12/20 10:27:31;;;;;;;10.03;5.30;;;10.40;87.40;;;;;;5016226;28;20030;-86
2020/12/20 10:29:56;;;;;;;9.37;5.00;;;10.40;87.30;;;;;;5016056;28;20117;-87
2020/12/20 10:32:22;;;;;;;10.37;5.87;;;10.40;87.40;;;;;;5033858;28;20029;-87
2020/12/20 10:34:48;;;;;;;10.47;4.90;;;10.40;86.70;;;;;;5016882;28;20394;-87
2020/12/20 10:37:13;;;;;;;10.60;5.60;;;10.40;86.50;;;;;;5016094;28;20062;-86
2020/12/20 10:39:39;;;;;;;11.83;5.50;;;10.40;86.40;;;;;;5015586;28;20394;-86
2020/12/20 10:42:04;;;;;;;11.53;4.93;;;10.40;86.60;;;;;;5015892;28;20063;-87
2020/12/20 10:44:30;;;;;;;8.20;4.87;;;10.50;86.60;;;;;;5015391;28;20033;-87
2020/12/20 10:46:56;;;;;;;9.33;5.40;;;10.40;86.30;;;;;;5015859;28;20355;-86
2020/12/20 10:49:21;;;;;;;11.73;4.93;;;10.40;86.10;;;;;;5015269;28;20034;-86
2020/12/20 10:51:52;;;;;;;10.43;5.60;;;10.40;86.20;;;;;;5015805;28;20091;-87
2020/12/20 10:54:17;;;;;;;7.73;4.77;;;10.50;86.30;;;;;;5033518;28;20389;-86
2020/12/20 10:56:46;;;;;;;10.13;5.13;;;10.50;86.80;;;;;;5015433;28;20037;-87
2020/12/20 10:59:11;;;;;;;10.90;5.40;;;10.50;85.90;;;;;;5032789;28;20037;-86
2020/12/20 11:01:37;;;;;;;9.13;5.07;;;10.50;85.80;;;;;;5033566;28;20037;-86
2020/12/20 11:04:02;;;;;;;12.70;5.80;;;10.50;85.80;;;;;;5033411;28;20025;-87
2020/12/20 11:06:30;;;;;;;12.73;5.17;;;10.50;85.70;;;;;;5015608;28;20088;-87
2020/12/20 11:08:56;;;;;;;11.50;4.97;;;10.50;85.70;;;;;;5014920;28;20084;-86
2020/12/20 11:11:31;;;;;;;12.57;5.43;;;10.50;85.90;;;;;;5015569;28;20038;-88
2020/12/20 11:13:58;;;;;;;11.53;4.67;;;10.50;85.80;;;;;;5033430;28;20030;-87
2020/12/20 11:16:24;;;;;;;7.60;4.63;;;10.50;85.60;;;;;;5015660;28;20043;-87
2020/12/20 11:18:50;;;;;;;11.23;5.17;;;10.50;85.60;;;;;;5015024;28;20036;-87
2020/12/20 11:21:17;;;;;;;11.03;4.77;;;10.50;85.70;;;;;;5015206;28;20288;-87
2020/12/20 11:23:45;;;;;;;13.43;5.13;;;10.50;85.70;;;;;;5015567;28;20053;-87
2020/12/20 11:26:15;;;;;;;9.10;5.17;;;10.50;85.60;;;;;;5015129;28;20061;-87
2020/12/20 11:28:43;;;;;;;10.00;4.87;;;10.50;85.60;;;;;;5015383;28;20124;-87
2020/12/20 11:31:20;;;;;;;9.40;4.53;;;10.60;85.80;;;;;;5014395;28;20034;-87
2020/12/20 11:33:46;;;;;;;8.17;4.53;;;10.60;86.50;;;;;;5015237;28;20047;-87
2020/12/20 11:36:17;;;;;;;7.87;4.60;;;10.60;85.60;;;;;;5015000;28;20032;-87
2020/12/20 11:38:43;;;;;;;11.80;5.67;;;10.60;85.50;;;;;;5014990;28;20120;-86
2020/12/20 11:41:09;;;;;;;10.47;4.70;;;10.60;85.30;;;;;;5014481;28;20549;-87
2020/12/20 11:43:35;;;;;;;8.77;4.43;;;10.60;85.60;;;;;;5014972;28;20032;-87
2020/12/20 11:46:01;;;;;;;10.87;5.33;;;10.60;86.10;;;;;;5015367;28;20410;-87
2020/12/20 11:48:26;;;;;;;11.23;5.63;;;10.60;85.60;;;;;;5014970;28;20026;-86
2020/12/20 11:50:52;;;;;;;10.83;4.97;;;10.60;85.40;;;;;;5014847;28;20064;-87
2020/12/20 11:53:18;;;;;;;10.90;4.80;;;10.60;85.60;;;;;;5032614;28;20171;-87
2020/12/20 11:55:43;;;;;;;9.87;5.07;;;10.60;85.60;;;;;;5014452;28;20021;-87
2020/12/20 11:58:12;;;;;;;10.77;5.13;;;10.50;84.90;;;;;;5014148;28;20075;-87
2020/12/20 12:00:41;;;;;;;7.60;4.43;;;10.60;85.30;;;;;;5014464;28;20021;-87
2020/12/20 12:03:08;;;;;;;15.35;5.60;;;10.60;85.80;;;;;;5014866;28;20498;-87
2020/12/20 12:05:37;;;;;;;7.80;4.27;;;10.60;85.30;;;;;;5014439;28;20030;-87
2020/12/20 12:08:04;;;;;;;9.77;4.40;;;10.60;86.00;;;;;;5015014;28;20502;-87
2020/12/20 12:10:43;;;;;;;12.03;4.93;;;10.60;85.00;;;;;;5015119;28;20030;-86
2020/12/20 12:13:09;;;;;;;;;;;10.60;84.90;;;;;;5017270;28;20030;-87
2020/12/20 12:15:36;;;;;;;12.47;4.90;;;10.70;85.00;;;;;;5015550;28;19921;-87
2020/12/20 12:18:02;;;;;;;10.17;4.27;;;10.70;84.90;;;;;;5034679;23;20042;-84
2020/12/20 12:20:27;;;;;;;8.80;4.03;;;10.70;84.80;;;;;;5014101;28;20111;-84
2020/12/20 12:22:53;;;;;;;11.87;4.23;;;10.70;84.70;;;;;;5014958;28;20433;-84
2020/12/20 12:25:18;;;;;;;12.77;4.67;;;10.70;84.70;;;;;;5014754;28;20053;-83
2020/12/20 12:27:44;;;;;;;12.47;4.87;;;10.60;84.60;;;;;;5013702;28;20029;-84
2020/12/20 12:30:10;;;;;;;10.17;4.10;;;10.70;84.40;;;;;;5014342;28;20022;-84
2020/12/20 12:32:37;;;;;;;10.10;4.17;;;10.70;84.40;;;;;;5014439;28;20022;-83
2020/12/20 12:35:03;;;;;;;12.10;4.03;;;10.70;83.90;;;;;;5013519;28;20440;-83
2020/12/20 12:37:29;;;;;;;10.17;4.73;;;10.70;84.10;;;;;;5015046;28;20113;-84
2020/12/20 12:39:54;;;;;;;7.67;3.50;;;10.70;84.00;;;;;;5013273;28;20050;-84
2020/12/20 12:42:20;;;;;;;11.70;4.10;;;10.70;84.00;;;;;;5015357;28;20449;-83
2020/12/20 12:44:46;;;;;;;8.63;3.57;;;10.70;83.60;;;;;;5015896;28;20073;-84
2020/12/20 12:47:12;;;;;;;9.83;3.60;;;10.80;83.50;;;;;;5014220;28;20478;-84